sensor_id;sensor_type;location;lat;lon;timestamp;P1;durP1;ratioP1;P2;durP2;ratioP2
70543;SDS011;58097;48.364;-1.224;2023-10-13T00:01:06;8.43;;;4.88;;
70543;SDS011;58097;48.364;-1.224;2023-10-13T00:03:33;16.75;;;5.53;;
70543;SDS011;58097;48.364;-1.224;2023-10-13T00:05:58;8.93;;;4.20;;
70543;SDS011;58097;48.364;-1.224;2023-10-13T00:08:28;16.48;;;5.32;;
70543;SDS011;58097;48.364;-1.224;2023-10-13T00:10:54;11.40;;;4.68;;
70543;SDS011;58097;48.364;-1.224;2023-10-13T00:13:26;10.55;;;4.60;;
70543;SDS011;58097;48.364;-1.224;2023-10-13T00:15:52;16.00;;;4.72;;
70543;SDS011;58097;48.364;-1.224;2023-10-13T00:18:28;11.20;;;4.25;;
70543;SDS011;58097;48.364;-1.224;2023-10-13T00:21:07;11.27;;;4.32;;
70543;SDS011;58097;48.364;-1.224;2023-10-13T00:23:41;10.73;;;4.68;;
70543;SDS011;58097;48.364;-1.224;2023-10-13T00:26:17;8.65;;;4.15;;
70543;SDS011;58097;48.364;-1.224;2023-10-13T00:28:43;11.02;;;4.57;;
70543;SDS011;58097;48.364;-1.224;2023-10-13T00:31:11;12.30;;;4.75;;
70543;SDS011;58097;48.364;-1.224;2023-10-13T00:33:39;14.95;;;5.72;;
70543;SDS011;58097;48.364;-1.224;2023-10-13T00:36:07;12.93;;;5.38;;
70543;SDS011;58097;48.364;-1.224;2023-10-13T00:38:33;8.95;;;4.85;;
70543;SDS011;58097;48.364;-1.224;2023-10-13T00:41:00;13.32;;;4.47;;
70543;SDS011;58097;48.364;-1.224;2023-10-13T00:43:49;14.48;;;5.10;;
70543;SDS011;58097;48.364;-1.224;2023-10-13T00:46:43;9.68;;;5.28;;
70543;SDS011;58097;48.364;-1.224;2023-10-13T00:49:10;10.88;;;4.90;;
70543;SDS011;58097;48.364;-1.224;2023-10-13T00:51:40;9.18;;;4.47;;
70543;SDS011;58097;48.364;-1.224;2023-10-13T00:54:12;13.77;;;5.45;;
70543;SDS011;58097;48.364;-1.224;2023-10-13T00:56:39;8.25;;;4.60;;
70543;SDS011;58097;48.364;-1.224;2023-10-13T00:59:15;14.23;;;5.45;;
70543;SDS011;58097;48.364;-1.224;2023-10-13T01:01:41;14.18;;;6.10;;
70543;SDS011;58097;48.364;-1.224;2023-10-13T01:04:10;8.63;;;3.65;;
70543;SDS011;58097;48.364;-1.224;2023-10-13T01:06:38;12.85;;;5.13;;
70543;SDS011;58097;48.364;-1.224;2023-10-13T01:09:08;9.05;;;4.38;;
70543;SDS011;58097;48.364;-1.224;2023-10-13T01:11:45;11.52;;;5.80;;
70543;SDS011;58097;48.364;-1.224;2023-10-13T01:14:21;8.80;;;4.50;;
70543;SDS011;58097;48.364;-1.224;2023-10-13T01:16:48;15.52;;;4.85;;
70543;SDS011;58097;48.364;-1.224;2023-10-13T01:19:17;12.35;;;4.57;;
70543;SDS011;58097;48.364;-1.224;2023-10-13T01:21:50;10.48;;;4.90;;
70543;SDS011;58097;48.364;-1.224;2023-10-13T01:24:22;8.93;;;4.35;;
70543;SDS011;58097;48.364;-1.224;2023-10-13T01:26:49;11.07;;;5.22;;
70543;SDS011;58097;48.364;-1.224;2023-10-13T01:29:16;10.23;;;4.90;;
70543;SDS011;58097;48.364;-1.224;2023-10-13T01:31:44;11.32;;;4.68;;
70543;SDS011;58097;48.364;-1.224;2023-10-13T01:34:15;10.52;;;5.40;;
70543;SDS011;58097;48.364;-1.224;2023-10-13T01:36:50;7.00;;;4.65;;
70543;SDS011;58097;48.364;-1.224;2023-10-13T01:39:18;7.60;;;4.50;;
70543;SDS011;58097;48.364;-1.224;2023-10-13T01:41:44;9.70;;;4.50;;
70543;SDS011;58097;48.364;-1.224;2023-10-13T01:44:10;8.50;;;4.22;;
70543;SDS011;58097;48.364;-1.224;2023-10-13T01:46:39;11.85;;;4.65;;
70543;SDS011;58097;48.364;-1.224;2023-10-13T01:49:07;13.88;;;4.63;;
70543;SDS011;58097;48.364;-1.224;2023-10-13T01:51:33;13.75;;;5.93;;
70543;SDS011;58097;48.364;-1.224;2023-10-13T01:53:58;11.52;;;4.82;;
70543;SDS011;58097;48.364;-1.224;2023-10-13T01:56:24;11.48;;;5.75;;
70543;SDS011;58097;48.364;-1.224;2023-10-13T01:58:49;9.48;;;4.32;;
70543;SDS011;58097;48.364;-1.224;2023-10-13T02:01:15;12.88;;;5.10;;
70543;SDS011;58097;48.364;-1.224;2023-10-13T02:03:56;12.00;;;4.40;;
70543;SDS011;58097;48.364;-1.224;2023-10-13T02:06:32;9.57;;;4.55;;
70543;SDS011;58097;48.364;-1.224;2023-10-13T02:09:02;10.07;;;4.50;;
70543;SDS011;58097;48.364;-1.224;2023-10-13T02:11:36;12.40;;;5.00;;
70543;SDS011;58097;48.364;-1.224;2023-10-13T02:14:03;15.10;;;5.63;;
70543;SDS011;58097;48.364;-1.224;2023-10-13T02:16:28;13.68;;;5.57;;
70543;SDS011;58097;48.364;-1.224;2023-10-13T02:18:56;9.30;;;4.68;;
70543;SDS011;58097;48.364;-1.224;2023-10-13T02:21:22;15.63;;;5.28;;
70543;SDS011;58097;48.364;-1.224;2023-10-13T02:23:56;12.35;;;5.05;;
70543;SDS011;58097;48.364;-1.224;2023-10-13T02:26:25;16.55;;;5.03;;
70543;SDS011;58097;48.364;-1.224;2023-10-13T02:28:57;18.40;;;5.80;;
70543;SDS011;58097;48.364;-1.224;2023-10-13T02:31:26;8.05;;;5.22;;
70543;SDS011;58097;48.364;-1.224;2023-10-13T02:33:52;9.75;;;4.78;;
70543;SDS011;58097;48.364;-1.224;2023-10-13T02:36:18;11.02;;;5.40;;
70543;SDS011;58097;48.364;-1.224;2023-10-13T02:38:48;13.77;;;5.03;;
70543;SDS011;58097;48.364;-1.224;2023-10-13T02:41:16;13.05;;;5.10;;
70543;SDS011;58097;48.364;-1.224;2023-10-13T02:43:51;11.55;;;5.20;;
70543;SDS011;58097;48.364;-1.224;2023-10-13T02:46:17;10.82;;;5.57;;
70543;SDS011;58097;48.364;-1.224;2023-10-13T02:48:46;6.57;;;4.32;;
70543;SDS011;58097;48.364;-1.224;2023-10-13T02:51:17;11.75;;;5.75;;
70543;SDS011;58097;48.364;-1.224;2023-10-13T02:54:02;6.63;;;5.05;;
70543;SDS011;58097;48.364;-1.224;2023-10-13T02:56:50;9.57;;;6.03;;
70543;SDS011;58097;48.364;-1.224;2023-10-13T02:59:22;11.27;;;5.50;;
70543;SDS011;58097;48.364;-1.224;2023-10-13T03:02:00;16.65;;;5.63;;
70543;SDS011;58097;48.364;-1.224;2023-10-13T03:04:31;10.40;;;5.53;;
70543;SDS011;58097;48.364;-1.224;2023-10-13T03:06:57;15.18;;;6.25;;
70543;SDS011;58097;48.364;-1.224;2023-10-13T03:09:24;10.77;;;5.53;;
70543;SDS011;58097;48.364;-1.224;2023-10-13T03:11:50;8.30;;;5.32;;
70543;SDS011;58097;48.364;-1.224;2023-10-13T03:14:19;15.13;;;5.95;;
70543;SDS011;58097;48.364;-1.224;2023-10-13T03:16:56;14.63;;;6.25;;
70543;SDS011;58097;48.364;-1.224;2023-10-13T03:19:33;12.02;;;6.10;;
70543;SDS011;58097;48.364;-1.224;2023-10-13T03:22:03;12.77;;;5.68;;
70543;SDS011;58097;48.364;-1.224;2023-10-13T03:24:36;11.25;;;6.07;;
70543;SDS011;58097;48.364;-1.224;2023-10-13T03:27:09;17.05;;;6.13;;
70543;SDS011;58097;48.364;-1.224;2023-10-13T03:29:36;12.40;;;6.57;;
70543;SDS011;58097;48.364;-1.224;2023-10-13T03:32:07;14.17;;;5.87;;
70543;SDS011;58097;48.364;-1.224;2023-10-13T03:34:37;13.65;;;6.03;;
70543;SDS011;58097;48.364;-1.224;2023-10-13T03:37:07;13.27;;;6.05;;
70543;SDS011;58097;48.364;-1.224;2023-10-13T03:42:25;12.35;;;5.95;;
70543;SDS011;58097;48.364;-1.224;2023-10-13T03:44:50;9.23;;;5.20;;
70543;SDS011;58097;48.364;-1.224;2023-10-13T03:47:16;11.98;;;6.00;;
70543;SDS011;58097;48.364;-1.224;2023-10-13T03:49:51;8.88;;;5.72;;
70543;SDS011;58097;48.364;-1.224;2023-10-13T03:52:37;12.93;;;5.80;;
70543;SDS011;58097;48.364;-1.224;2023-10-13T03:55:03;10.57;;;5.45;;
70543;SDS011;58097;48.364;-1.224;2023-10-13T03:57:30;8.98;;;5.38;;
70543;SDS011;58097;48.364;-1.224;2023-10-13T03:59:58;9.75;;;5.70;;
70543;SDS011;58097;48.364;-1.224;2023-10-13T04:02:30;11.90;;;6.13;;
70543;SDS011;58097;48.364;-1.224;2023-10-13T04:04:56;11.20;;;5.55;;
70543;SDS011;58097;48.364;-1.224;2023-10-13T04:07:32;10.95;;;6.78;;
70543;SDS011;58097;48.364;-1.224;2023-10-13T04:09:57;9.20;;;5.32;;
70543;SDS011;58097;48.364;-1.224;2023-10-13T04:12:43;12.98;;;5.43;;
70543;SDS011;58097;48.364;-1.224;2023-10-13T04:15:27;9.85;;;5.30;;
70543;SDS011;58097;48.364;-1.224;2023-10-13T04:18:02;7.30;;;5.85;;
70543;SDS011;58097;48.364;-1.224;2023-10-13T04:20:38;8.23;;;5.82;;
70543;SDS011;58097;48.364;-1.224;2023-10-13T04:23:04;11.70;;;5.90;;
70543;SDS011;58097;48.364;-1.224;2023-10-13T04:25:51;12.93;;;5.70;;
70543;SDS011;58097;48.364;-1.224;2023-10-13T04:28:16;11.23;;;5.30;;
70543;SDS011;58097;48.364;-1.224;2023-10-13T04:31:02;7.65;;;5.43;;
70543;SDS011;58097;48.364;-1.224;2023-10-13T04:33:37;11.18;;;5.57;;
70543;SDS011;58097;48.364;-1.224;2023-10-13T04:36:16;12.68;;;6.40;;
70543;SDS011;58097;48.364;-1.224;2023-10-13T04:38:52;11.57;;;6.60;;
70543;SDS011;58097;48.364;-1.224;2023-10-13T04:44:21;18.55;;;5.45;;
70543;SDS011;58097;48.364;-1.224;2023-10-13T04:47:05;14.10;;;7.18;;
70543;SDS011;58097;48.364;-1.224;2023-10-13T04:49:34;14.77;;;6.45;;
70543;SDS011;58097;48.364;-1.224;2023-10-13T04:52:07;12.98;;;6.28;;
70543;SDS011;58097;48.364;-1.224;2023-10-13T04:57:13;13.13;;;6.82;;
70543;SDS011;58097;48.364;-1.224;2023-10-13T04:59:51;13.57;;;5.55;;
70543;SDS011;58097;48.364;-1.224;2023-10-13T05:02:36;13.85;;;6.30;;
70543;SDS011;58097;48.364;-1.224;2023-10-13T05:05:09;12.65;;;6.80;;
70543;SDS011;58097;48.364;-1.224;2023-10-13T05:07:50;8.80;;;6.38;;
70543;SDS011;58097;48.364;-1.224;2023-10-13T05:10:35;9.98;;;5.80;;
70543;SDS011;58097;48.364;-1.224;2023-10-13T05:13:19;14.82;;;6.05;;
70543;SDS011;58097;48.364;-1.224;2023-10-13T05:16:03;17.13;;;6.05;;
70543;SDS011;58097;48.364;-1.224;2023-10-13T05:18:48;15.30;;;5.57;;
70543;SDS011;58097;48.364;-1.224;2023-10-13T05:21:31;11.93;;;7.28;;
70543;SDS011;58097;48.364;-1.224;2023-10-13T05:24:16;12.00;;;6.35;;
70543;SDS011;58097;48.364;-1.224;2023-10-13T05:27:00;12.93;;;6.00;;
70543;SDS011;58097;48.364;-1.224;2023-10-13T05:29:44;9.25;;;5.15;;
70543;SDS011;58097;48.364;-1.224;2023-10-13T05:32:29;16.13;;;5.93;;
70543;SDS011;58097;48.364;-1.224;2023-10-13T05:35:14;8.93;;;4.80;;
70543;SDS011;58097;48.364;-1.224;2023-10-13T05:37:59;12.35;;;4.93;;
70543;SDS011;58097;48.364;-1.224;2023-10-13T05:40:53;11.43;;;4.97;;
70543;SDS011;58097;48.364;-1.224;2023-10-13T05:43:37;12.82;;;5.60;;
70543;SDS011;58097;48.364;-1.224;2023-10-13T05:46:21;14.15;;;5.70;;
70543;SDS011;58097;48.364;-1.224;2023-10-13T05:48:53;11.05;;;5.28;;
70543;SDS011;58097;48.364;-1.224;2023-10-13T05:51:28;10.88;;;5.70;;
70543;SDS011;58097;48.364;-1.224;2023-10-13T05:54:01;8.82;;;4.95;;
70543;SDS011;58097;48.364;-1.224;2023-10-13T05:56:44;6.63;;;4.65;;
70543;SDS011;58097;48.364;-1.224;2023-10-13T05:59:29;13.68;;;5.13;;
70543;SDS011;58097;48.364;-1.224;2023-10-13T06:02:14;16.38;;;5.72;;
70543;SDS011;58097;48.364;-1.224;2023-10-13T06:05:03;10.02;;;5.20;;
70543;SDS011;58097;48.364;-1.224;2023-10-13T06:07:48;11.00;;;5.03;;
70543;SDS011;58097;48.364;-1.224;2023-10-13T06:10:32;11.18;;;4.55;;
70543;SDS011;58097;48.364;-1.224;2023-10-13T06:13:16;9.90;;;4.95;;
70543;SDS011;58097;48.364;-1.224;2023-10-13T06:16:15;7.80;;;4.75;;
70543;SDS011;58097;48.364;-1.224;2023-10-13T06:19:00;12.20;;;5.25;;
70543;SDS011;58097;48.364;-1.224;2023-10-13T06:21:45;10.80;;;5.00;;
70543;SDS011;58097;48.364;-1.224;2023-10-13T06:24:29;18.75;;;5.55;;
70543;SDS011;58097;48.364;-1.224;2023-10-13T06:27:14;14.90;;;5.35;;
70543;SDS011;58097;48.364;-1.224;2023-10-13T06:29:58;14.73;;;5.45;;
70543;SDS011;58097;48.364;-1.224;2023-10-13T06:32:24;16.00;;;4.63;;
70543;SDS011;58097;48.364;-1.224;2023-10-13T06:34:55;15.10;;;5.32;;
70543;SDS011;58097;48.364;-1.224;2023-10-13T06:37:30;9.85;;;4.97;;
70543;SDS011;58097;48.364;-1.224;2023-10-13T06:39:56;7.22;;;4.68;;
70543;SDS011;58097;48.364;-1.224;2023-10-13T06:42:24;11.27;;;4.93;;
70543;SDS011;58097;48.364;-1.224;2023-10-13T06:44:53;10.05;;;4.75;;
70543;SDS011;58097;48.364;-1.224;2023-10-13T06:47:20;9.23;;;4.43;;
70543;SDS011;58097;48.364;-1.224;2023-10-13T06:49:46;10.27;;;5.50;;
70543;SDS011;58097;48.364;-1.224;2023-10-13T06:52:13;8.75;;;5.50;;
70543;SDS011;58097;48.364;-1.224;2023-10-13T06:54:41;11.70;;;6.00;;
70543;SDS011;58097;48.364;-1.224;2023-10-13T06:57:08;15.60;;;5.90;;
70543;SDS011;58097;48.364;-1.224;2023-10-13T06:59:39;14.05;;;5.80;;
70543;SDS011;58097;48.364;-1.224;2023-10-13T07:02:06;8.00;;;5.60;;
70543;SDS011;58097;48.364;-1.224;2023-10-13T07:04:34;13.23;;;5.68;;
70543;SDS011;58097;48.364;-1.224;2023-10-13T07:07:04;12.25;;;6.10;;
70543;SDS011;58097;48.364;-1.224;2023-10-13T07:09:35;9.60;;;5.63;;
70543;SDS011;58097;48.364;-1.224;2023-10-13T07:12:04;15.98;;;5.63;;
70543;SDS011;58097;48.364;-1.224;2023-10-13T07:14:49;18.50;;;6.10;;
70543;SDS011;58097;48.364;-1.224;2023-10-13T07:17:20;16.67;;;5.80;;
70543;SDS011;58097;48.364;-1.224;2023-10-13T07:19:52;12.32;;;5.50;;
70543;SDS011;58097;48.364;-1.224;2023-10-13T07:22:18;12.10;;;6.43;;
70543;SDS011;58097;48.364;-1.224;2023-10-13T07:24:48;21.10;;;6.65;;
70543;SDS011;58097;48.364;-1.224;2023-10-13T07:27:24;14.30;;;5.95;;
70543;SDS011;58097;48.364;-1.224;2023-10-13T07:29:53;13.02;;;5.70;;
70543;SDS011;58097;48.364;-1.224;2023-10-13T07:32:39;14.52;;;5.63;;
70543;SDS011;58097;48.364;-1.224;2023-10-13T07:35:16;14.02;;;5.55;;
70543;SDS011;58097;48.364;-1.224;2023-10-13T07:37:44;10.45;;;5.65;;
70543;SDS011;58097;48.364;-1.224;2023-10-13T07:40:13;10.85;;;6.38;;
70543;SDS011;58097;48.364;-1.224;2023-10-13T07:42:52;11.55;;;5.30;;
70543;SDS011;58097;48.364;-1.224;2023-10-13T07:45:25;8.70;;;5.95;;
70543;SDS011;58097;48.364;-1.224;2023-10-13T07:48:06;7.35;;;5.50;;
70543;SDS011;58097;48.364;-1.224;2023-10-13T07:50:40;9.88;;;6.60;;
70543;SDS011;58097;48.364;-1.224;2023-10-13T07:53:06;14.02;;;5.97;;
70543;SDS011;58097;48.364;-1.224;2023-10-13T07:58:28;15.45;;;5.82;;
70543;SDS011;58097;48.364;-1.224;2023-10-13T08:00:55;8.82;;;5.43;;
70543;SDS011;58097;48.364;-1.224;2023-10-13T08:03:23;15.20;;;6.93;;
70543;SDS011;58097;48.364;-1.224;2023-10-13T08:06:00;10.05;;;5.88;;
70543;SDS011;58097;48.364;-1.224;2023-10-13T08:08:32;22.23;;;5.95;;
70543;SDS011;58097;48.364;-1.224;2023-10-13T08:13:48;10.48;;;5.75;;
70543;SDS011;58097;48.364;-1.224;2023-10-13T08:16:19;14.77;;;5.43;;
70543;SDS011;58097;48.364;-1.224;2023-10-13T08:19:13;16.92;;;6.18;;
70543;SDS011;58097;48.364;-1.224;2023-10-13T08:21:46;10.27;;;6.55;;
70543;SDS011;58097;48.364;-1.224;2023-10-13T08:24:41;13.05;;;5.93;;
70543;SDS011;58097;48.364;-1.224;2023-10-13T08:27:06;17.45;;;6.38;;
70543;SDS011;58097;48.364;-1.224;2023-10-13T08:29:45;12.90;;;6.45;;
70543;SDS011;58097;48.364;-1.224;2023-10-13T08:32:34;13.18;;;5.80;;
70543;SDS011;58097;48.364;-1.224;2023-10-13T08:35:00;12.25;;;5.95;;
70543;SDS011;58097;48.364;-1.224;2023-10-13T08:37:26;15.32;;;5.95;;
70543;SDS011;58097;48.364;-1.224;2023-10-13T08:39:53;12.60;;;5.68;;
70543;SDS011;58097;48.364;-1.224;2023-10-13T08:42:29;12.65;;;5.50;;
70543;SDS011;58097;48.364;-1.224;2023-10-13T08:45:18;10.65;;;6.10;;
70543;SDS011;58097;48.364;-1.224;2023-10-13T08:47:59;11.60;;;4.80;;
70543;SDS011;58097;48.364;-1.224;2023-10-13T08:50:44;14.90;;;6.72;;
70543;SDS011;58097;48.364;-1.224;2023-10-13T08:58:28;10.02;;;4.88;;
70543;SDS011;58097;48.364;-1.224;2023-10-13T09:01:12;8.80;;;5.22;;
70543;SDS011;58097;48.364;-1.224;2023-10-13T09:03:39;19.20;;;6.03;;
70543;SDS011;58097;48.364;-1.224;2023-10-13T09:06:08;17.75;;;5.35;;
70543;SDS011;58097;48.364;-1.224;2023-10-13T09:08:39;11.27;;;5.70;;
70543;SDS011;58097;48.364;-1.224;2023-10-13T09:11:24;12.18;;;5.80;;
70543;SDS011;58097;48.364;-1.224;2023-10-13T09:13:52;14.60;;;5.78;;
70543;SDS011;58097;48.364;-1.224;2023-10-13T09:16:18;15.63;;;6.32;;
70543;SDS011;58097;48.364;-1.224;2023-10-13T09:19:06;11.60;;;5.22;;
70543;SDS011;58097;48.364;-1.224;2023-10-13T09:21:41;15.90;;;5.55;;
70543;SDS011;58097;48.364;-1.224;2023-10-13T09:24:10;15.93;;;5.30;;
70543;SDS011;58097;48.364;-1.224;2023-10-13T09:26:55;11.82;;;5.57;;
70543;SDS011;58097;48.364;-1.224;2023-10-13T09:29:21;12.85;;;5.28;;
70543;SDS011;58097;48.364;-1.224;2023-10-13T09:31:47;14.95;;;5.68;;
70543;SDS011;58097;48.364;-1.224;2023-10-13T09:34:24;18.42;;;5.95;;
70543;SDS011;58097;48.364;-1.224;2023-10-13T09:36:54;10.60;;;5.30;;
70543;SDS011;58097;48.364;-1.224;2023-10-13T09:39:26;16.17;;;5.60;;
70543;SDS011;58097;48.364;-1.224;2023-10-13T09:42:13;13.88;;;4.45;;
70543;SDS011;58097;48.364;-1.224;2023-10-13T09:44:40;19.33;;;5.88;;
70543;SDS011;58097;48.364;-1.224;2023-10-13T09:47:07;14.98;;;6.13;;
70543;SDS011;58097;48.364;-1.224;2023-10-13T09:49:45;12.40;;;5.38;;
70543;SDS011;58097;48.364;-1.224;2023-10-13T09:52:17;21.30;;;6.15;;
70543;SDS011;58097;48.364;-1.224;2023-10-13T09:54:55;13.15;;;5.20;;
70543;SDS011;58097;48.364;-1.224;2023-10-13T09:57:28;15.00;;;5.72;;
70543;SDS011;58097;48.364;-1.224;2023-10-13T10:00:06;16.63;;;5.45;;
70543;SDS011;58097;48.364;-1.224;2023-10-13T10:03:09;10.05;;;3.97;;
70543;SDS011;58097;48.364;-1.224;2023-10-13T10:05:57;16.17;;;4.72;;
70543;SDS011;58097;48.364;-1.224;2023-10-13T10:08:32;16.63;;;6.25;;
70543;SDS011;58097;48.364;-1.224;2023-10-13T10:16:06;22.38;;;5.32;;
70543;SDS011;58097;48.364;-1.224;2023-10-13T10:18:44;12.90;;;4.72;;
70543;SDS011;58097;48.364;-1.224;2023-10-13T10:21:10;10.93;;;5.13;;
70543;SDS011;58097;48.364;-1.224;2023-10-13T10:23:36;18.30;;;5.45;;
70543;SDS011;58097;48.364;-1.224;2023-10-13T10:26:11;17.92;;;5.63;;
70543;SDS011;58097;48.364;-1.224;2023-10-13T10:28:43;11.20;;;4.70;;
70543;SDS011;58097;48.364;-1.224;2023-10-13T10:31:09;19.48;;;4.93;;
70543;SDS011;58097;48.364;-1.224;2023-10-13T10:33:40;15.77;;;5.40;;
70543;SDS011;58097;48.364;-1.224;2023-10-13T10:36:06;18.05;;;5.32;;
70543;SDS011;58097;48.364;-1.224;2023-10-13T10:38:54;17.58;;;4.07;;
70543;SDS011;58097;48.364;-1.224;2023-10-13T10:41:27;19.40;;;5.45;;
70543;SDS011;58097;48.364;-1.224;2023-10-13T10:44:23;20.55;;;4.85;;
70543;SDS011;58097;48.364;-1.224;2023-10-13T10:47:08;24.58;;;6.00;;
70543;SDS011;58097;48.364;-1.224;2023-10-13T10:49:36;19.35;;;5.20;;
70543;SDS011;58097;48.364;-1.224;2023-10-13T10:52:03;18.27;;;4.50;;
70543;SDS011;58097;48.364;-1.224;2023-10-13T10:54:31;16.90;;;4.97;;
70543;SDS011;58097;48.364;-1.224;2023-10-13T10:56:57;19.70;;;5.85;;
70543;SDS011;58097;48.364;-1.224;2023-10-13T10:59:35;15.52;;;5.53;;
70543;SDS011;58097;48.364;-1.224;2023-10-13T11:02:05;20.90;;;5.72;;
70543;SDS011;58097;48.364;-1.224;2023-10-13T11:04:33;20.40;;;5.57;;
70543;SDS011;58097;48.364;-1.224;2023-10-13T11:06:59;21.17;;;6.78;;
70543;SDS011;58097;48.364;-1.224;2023-10-13T11:09:29;20.63;;;6.13;;
70543;SDS011;58097;48.364;-1.224;2023-10-13T11:12:10;17.95;;;6.00;;
70543;SDS011;58097;48.364;-1.224;2023-10-13T11:14:42;19.20;;;6.03;;
70543;SDS011;58097;48.364;-1.224;2023-10-13T11:17:18;20.85;;;5.63;;
70543;SDS011;58097;48.364;-1.224;2023-10-13T11:19:49;16.85;;;6.38;;
70543;SDS011;58097;48.364;-1.224;2023-10-13T11:24:55;20.38;;;6.93;;
70543;SDS011;58097;48.364;-1.224;2023-10-13T11:27:27;19.95;;;5.72;;
70543;SDS011;58097;48.364;-1.224;2023-10-13T11:30:15;13.82;;;6.15;;
70543;SDS011;58097;48.364;-1.224;2023-10-13T11:32:45;17.30;;;5.43;;
70543;SDS011;58097;48.364;-1.224;2023-10-13T11:35:11;11.48;;;5.35;;
70543;SDS011;58097;48.364;-1.224;2023-10-13T11:37:47;15.52;;;4.63;;
70543;SDS011;58097;48.364;-1.224;2023-10-13T11:40:21;19.17;;;5.30;;
70543;SDS011;58097;48.364;-1.224;2023-10-13T11:43:07;25.48;;;6.43;;
70543;SDS011;58097;48.364;-1.224;2023-10-13T11:45:39;20.23;;;5.30;;
70543;SDS011;58097;48.364;-1.224;2023-10-13T11:48:20;11.07;;;4.50;;
70543;SDS011;58097;48.364;-1.224;2023-10-13T11:51:01;18.25;;;6.00;;
70543;SDS011;58097;48.364;-1.224;2023-10-13T11:53:36;18.08;;;6.18;;
70543;SDS011;58097;48.364;-1.224;2023-10-13T11:56:03;16.00;;;5.75;;
70543;SDS011;58097;48.364;-1.224;2023-10-13T11:58:37;18.13;;;5.47;;
70543;SDS011;58097;48.364;-1.224;2023-10-13T12:01:03;15.50;;;6.38;;
70543;SDS011;58097;48.364;-1.224;2023-10-13T12:03:38;16.80;;;6.97;;
70543;SDS011;58097;48.364;-1.224;2023-10-13T12:06:40;23.45;;;9.90;;
70543;SDS011;58097;48.364;-1.224;2023-10-13T12:09:06;22.25;;;11.20;;
70543;SDS011;58097;48.364;-1.224;2023-10-13T12:11:41;25.52;;;12.80;;
70543;SDS011;58097;48.364;-1.224;2023-10-13T12:14:07;29.02;;;11.43;;
70543;SDS011;58097;48.364;-1.224;2023-10-13T12:16:45;24.25;;;13.18;;
70543;SDS011;58097;48.364;-1.224;2023-10-13T12:19:24;25.10;;;11.38;;
70543;SDS011;58097;48.364;-1.224;2023-10-13T12:21:52;33.97;;;12.88;;
70543;SDS011;58097;48.364;-1.224;2023-10-13T12:24:19;29.73;;;11.25;;
70543;SDS011;58097;48.364;-1.224;2023-10-13T12:27:01;25.60;;;12.80;;
70543;SDS011;58097;48.364;-1.224;2023-10-13T12:29:44;26.77;;;12.63;;
70543;SDS011;58097;48.364;-1.224;2023-10-13T12:32:13;21.75;;;10.40;;
70543;SDS011;58097;48.364;-1.224;2023-10-13T12:34:40;20.70;;;10.68;;
70543;SDS011;58097;48.364;-1.224;2023-10-13T12:37:25;27.00;;;10.52;;
70543;SDS011;58097;48.364;-1.224;2023-10-13T12:40:12;25.83;;;10.85;;
70543;SDS011;58097;48.364;-1.224;2023-10-13T12:43:00;26.17;;;13.40;;
70543;SDS011;58097;48.364;-1.224;2023-10-13T12:45:45;36.33;;;15.50;;
70543;SDS011;58097;48.364;-1.224;2023-10-13T12:48:30;29.73;;;17.45;;
70543;SDS011;58097;48.364;-1.224;2023-10-13T12:51:16;37.47;;;16.73;;
70543;SDS011;58097;48.364;-1.224;2023-10-13T12:53:54;34.90;;;18.77;;
70543;SDS011;58097;48.364;-1.224;2023-10-13T12:56:21;42.97;;;18.55;;
70543;SDS011;58097;48.364;-1.224;2023-10-13T12:58:53;34.53;;;18.52;;
70543;SDS011;58097;48.364;-1.224;2023-10-13T13:01:19;32.03;;;18.48;;
70543;SDS011;58097;48.364;-1.224;2023-10-13T13:03:46;35.30;;;18.02;;
70543;SDS011;58097;48.364;-1.224;2023-10-13T13:06:18;39.40;;;18.83;;
70543;SDS011;58097;48.364;-1.224;2023-10-13T13:08:51;31.80;;;17.60;;
70543;SDS011;58097;48.364;-1.224;2023-10-13T13:11:17;29.25;;;17.63;;
70543;SDS011;58097;48.364;-1.224;2023-10-13T13:13:43;39.70;;;19.58;;
70543;SDS011;58097;48.364;-1.224;2023-10-13T13:16:11;34.25;;;18.75;;
70543;SDS011;58097;48.364;-1.224;2023-10-13T13:18:37;36.70;;;19.13;;
70543;SDS011;58097;48.364;-1.224;2023-10-13T13:21:02;27.85;;;16.05;;
70543;SDS011;58097;48.364;-1.224;2023-10-13T13:23:31;31.30;;;17.05;;
70543;SDS011;58097;48.364;-1.224;2023-10-13T13:25:57;40.45;;;19.13;;
70543;SDS011;58097;48.364;-1.224;2023-10-13T13:28:23;26.90;;;17.00;;
70543;SDS011;58097;48.364;-1.224;2023-10-13T13:30:49;37.13;;;17.33;;
70543;SDS011;58097;48.364;-1.224;2023-10-13T13:33:16;30.80;;;15.57;;
70543;SDS011;58097;48.364;-1.224;2023-10-13T13:35:42;38.22;;;17.33;;
70543;SDS011;58097;48.364;-1.224;2023-10-13T13:38:08;34.17;;;15.75;;
70543;SDS011;58097;48.364;-1.224;2023-10-13T13:40:54;25.20;;;14.98;;
70543;SDS011;58097;48.364;-1.224;2023-10-13T13:43:22;30.13;;;15.90;;
70543;SDS011;58097;48.364;-1.224;2023-10-13T13:46:02;28.00;;;15.90;;
70543;SDS011;58097;48.364;-1.224;2023-10-13T13:48:28;27.58;;;15.15;;
70543;SDS011;58097;48.364;-1.224;2023-10-13T13:50:54;34.90;;;15.48;;
70543;SDS011;58097;48.364;-1.224;2023-10-13T13:53:28;33.20;;;15.93;;
70543;SDS011;58097;48.364;-1.224;2023-10-13T13:55:59;31.63;;;16.33;;
70543;SDS011;58097;48.364;-1.224;2023-10-13T13:58:25;29.73;;;15.40;;
70543;SDS011;58097;48.364;-1.224;2023-10-13T14:00:50;33.63;;;15.90;;
70543;SDS011;58097;48.364;-1.224;2023-10-13T14:03:16;32.03;;;15.98;;
70543;SDS011;58097;48.364;-1.224;2023-10-13T14:06:01;37.13;;;15.15;;
70543;SDS011;58097;48.364;-1.224;2023-10-13T14:08:28;31.55;;;15.45;;
70543;SDS011;58097;48.364;-1.224;2023-10-13T14:10:55;32.47;;;15.48;;
70543;SDS011;58097;48.364;-1.224;2023-10-13T14:13:39;26.00;;;14.50;;
70543;SDS011;58097;48.364;-1.224;2023-10-13T14:16:15;33.08;;;14.55;;
70543;SDS011;58097;48.364;-1.224;2023-10-13T14:18:44;26.63;;;13.80;;
70543;SDS011;58097;48.364;-1.224;2023-10-13T14:21:11;22.42;;;13.60;;
70543;SDS011;58097;48.364;-1.224;2023-10-13T14:23:41;21.92;;;13.30;;
70543;SDS011;58097;48.364;-1.224;2023-10-13T14:26:13;28.38;;;14.50;;
70543;SDS011;58097;48.364;-1.224;2023-10-13T14:28:40;31.17;;;12.80;;
70543;SDS011;58097;48.364;-1.224;2023-10-13T14:31:15;25.85;;;13.75;;
70543;SDS011;58097;48.364;-1.224;2023-10-13T14:33:43;31.60;;;12.98;;
70543;SDS011;58097;48.364;-1.224;2023-10-13T14:36:10;19.30;;;12.20;;
70543;SDS011;58097;48.364;-1.224;2023-10-13T14:38:35;23.55;;;10.90;;
70543;SDS011;58097;48.364;-1.224;2023-10-13T14:41:00;24.65;;;10.00;;
70543;SDS011;58097;48.364;-1.224;2023-10-13T14:43:26;28.80;;;11.55;;
70543;SDS011;58097;48.364;-1.224;2023-10-13T14:45:53;18.73;;;10.77;;
70543;SDS011;58097;48.364;-1.224;2023-10-13T14:48:18;20.85;;;9.73;;
70543;SDS011;58097;48.364;-1.224;2023-10-13T14:50:44;17.90;;;8.95;;
70543;SDS011;58097;48.364;-1.224;2023-10-13T14:53:10;12.13;;;7.13;;
70543;SDS011;58097;48.364;-1.224;2023-10-13T14:55:36;22.75;;;9.05;;
70543;SDS011;58097;48.364;-1.224;2023-10-13T14:58:04;15.73;;;6.63;;
70543;SDS011;58097;48.364;-1.224;2023-10-13T15:00:32;18.17;;;6.20;;
70543;SDS011;58097;48.364;-1.224;2023-10-13T15:02:58;12.55;;;4.50;;
70543;SDS011;58097;48.364;-1.224;2023-10-13T15:05:26;16.67;;;4.57;;
70543;SDS011;58097;48.364;-1.224;2023-10-13T15:07:55;14.50;;;4.50;;
70543;SDS011;58097;48.364;-1.224;2023-10-13T15:10:21;12.13;;;4.20;;
70543;SDS011;58097;48.364;-1.224;2023-10-13T15:12:46;15.35;;;3.78;;
70543;SDS011;58097;48.364;-1.224;2023-10-13T15:15:13;14.80;;;3.53;;
70543;SDS011;58097;48.364;-1.224;2023-10-13T15:17:41;14.23;;;2.92;;
70543;SDS011;58097;48.364;-1.224;2023-10-13T15:20:09;8.48;;;2.58;;
70543;SDS011;58097;48.364;-1.224;2023-10-13T15:22:40;8.50;;;2.33;;